createdAt,value
2022-11-09T00:00:53.202Z,21.05
2022-11-09T00:03:26.344Z,20.20
2022-11-09T00:06:00.808Z,19.55
2022-11-09T00:08:34.543Z,19.32
2022-11-09T00:11:10.583Z,19.00
2022-11-09T00:13:45.324Z,22.70
2022-11-09T00:16:21.616Z,22.32
2022-11-09T00:18:56.295Z,21.68
2022-11-09T00:21:29.372Z,18.70
2022-11-09T00:24:02.358Z,21.48
2022-11-09T00:26:35.470Z,22.27
2022-11-09T00:29:08.992Z,24.02
2022-11-09T00:31:43.712Z,23.10
2022-11-09T00:34:16.859Z,21.80
2022-11-09T00:36:50.266Z,22.40
2022-11-09T00:39:23.209Z,23.25
2022-11-09T00:41:56.344Z,22.65
2022-11-09T00:44:29.573Z,25.30
2022-11-09T00:47:02.430Z,26.80
2022-11-09T00:49:35.897Z,25.37
2022-11-09T00:52:09.003Z,23.85
2022-11-09T00:54:42.432Z,26.02
2022-11-09T00:57:17.281Z,22.58
2022-11-09T00:59:54.080Z,25.97
2022-11-09T01:02:27.227Z,26.85
2022-11-09T01:05:01.960Z,28.12
2022-11-09T01:07:35.187Z,28.90
2022-11-09T01:10:10.311Z,29.10
2022-11-09T01:12:43.844Z,29.32
2022-11-09T01:15:16.853Z,31.00
2022-11-09T01:17:50.234Z,34.80
2022-11-09T01:20:23.309Z,35.28
2022-11-09T01:22:57.470Z,34.88
2022-11-09T01:25:31.994Z,34.40
2022-11-09T01:28:06.111Z,37.58
2022-11-09T01:30:43.972Z,40.88
2022-11-09T01:33:18.159Z,39.83
2022-11-09T01:38:23.858Z,42.50
2022-11-09T01:40:57.243Z,41.42
2022-11-09T01:43:30.725Z,41.40
2022-11-09T01:46:25.831Z,39.67
2022-11-09T01:49:05.242Z,39.13
2022-11-09T01:51:42.174Z,40.38
2022-11-09T01:54:24.950Z,38.63
2022-11-09T01:57:04.172Z,40.58
2022-11-09T01:59:42.471Z,37.45
2022-11-09T02:02:15.822Z,35.45
2022-11-09T02:04:58.990Z,35.30
2022-11-09T02:07:32.483Z,33.87
2022-11-09T02:10:28.240Z,34.88
2022-11-09T02:13:03.031Z,36.25
2022-11-09T02:15:42.872Z,36.65
2022-11-09T02:18:14.592Z,34.98
2022-11-09T02:20:51.719Z,34.23
2022-11-09T02:23:28.249Z,34.95
2022-11-09T02:26:10.707Z,34.95
2022-11-09T02:28:44.803Z,37.25
2022-11-09T02:31:20.447Z,38.53
2022-11-09T02:34:07.667Z,36.95
2022-11-09T02:36:43.137Z,35.03
2022-11-09T02:39:21.296Z,36.83
2022-11-09T02:42:10.007Z,37.80
2022-11-09T02:44:47.168Z,38.10
2022-11-09T02:47:20.343Z,38.42
2022-11-09T02:49:53.362Z,36.90
2022-11-09T02:52:26.579Z,35.58
2022-11-09T02:55:00.036Z,33.98
2022-11-09T02:57:33.426Z,31.35
2022-11-09T03:00:09.393Z,31.73
2022-11-09T03:02:44.112Z,29.27
2022-11-09T03:05:17.796Z,29.23
2022-11-09T03:07:51.550Z,27.00
2022-11-09T03:10:25.149Z,28.70
2022-11-09T03:12:58.908Z,26.93
2022-11-09T03:15:33.794Z,26.48
2022-11-09T03:20:40.454Z,26.87
2022-11-09T03:23:13.584Z,24.93
2022-11-09T03:25:47.603Z,24.72
2022-11-09T03:28:20.727Z,26.35
2022-11-09T03:30:54.855Z,24.55
2022-11-09T03:33:27.782Z,25.20
2022-11-09T03:36:02.246Z,25.25
2022-11-09T03:38:35.685Z,22.60
2022-11-09T03:41:09.189Z,26.55
2022-11-09T03:43:44.270Z,24.67
2022-11-09T03:46:17.202Z,25.40
2022-11-09T03:48:50.106Z,25.23
2022-11-09T03:51:23.011Z,24.10
2022-11-09T03:53:55.967Z,23.92
2022-11-09T03:56:28.912Z,32.85
2022-11-09T03:59:02.071Z,27.32
2022-11-09T04:01:35.194Z,26.97
2022-11-09T04:04:08.473Z,26.07
2022-11-09T04:06:41.974Z,25.05
2022-11-09T04:09:15.201Z,25.35
2022-11-09T04:11:48.331Z,25.57
2022-11-09T04:14:21.393Z,25.77
2022-11-09T04:16:55.199Z,25.35
2022-11-09T04:19:28.232Z,26.17
2022-11-09T04:22:01.225Z,25.43
2022-11-09T04:24:34.445Z,27.73
2022-11-09T04:27:08.297Z,24.47
2022-11-09T04:29:42.034Z,25.20
2022-11-09T04:32:15.250Z,25.00
2022-11-09T04:34:48.304Z,25.60
2022-11-09T04:37:21.454Z,25.12
2022-11-09T04:42:27.702Z,24.63
2022-11-09T04:45:00.838Z,24.85
2022-11-09T04:47:34.147Z,26.62
2022-11-09T04:50:11.727Z,25.70
2022-11-09T04:52:44.889Z,26.57
2022-11-09T04:55:18.000Z,26.93
2022-11-09T04:57:51.145Z,25.43
2022-11-09T05:00:26.047Z,24.72
2022-11-09T05:03:04.258Z,24.85
2022-11-09T05:05:45.466Z,22.70
2022-11-09T05:08:15.466Z,24.87
2022-11-09T05:10:50.183Z,27.02
2022-11-09T05:13:23.234Z,27.27
2022-11-09T05:15:56.389Z,25.90
2022-11-09T05:18:29.483Z,24.32
2022-11-09T05:21:03.682Z,25.20
2022-11-09T05:23:54.181Z,23.87
2022-11-09T05:26:34.217Z,22.55
2022-11-09T05:29:12.539Z,27.70
2022-11-09T05:31:52.119Z,27.02
2022-11-09T05:34:22.302Z,26.12
2022-11-09T05:36:58.177Z,24.02
2022-11-09T05:39:29.637Z,25.08
2022-11-09T05:42:02.639Z,25.92
2022-11-09T05:44:37.117Z,25.27
2022-11-09T05:47:10.274Z,25.62
2022-11-09T05:49:43.967Z,26.20
2022-11-09T05:52:17.228Z,24.03
2022-11-09T05:54:50.341Z,23.73
2022-11-09T05:57:23.265Z,24.57
2022-11-09T05:59:56.238Z,25.08
2022-11-09T06:02:32.797Z,25.10
2022-11-09T06:05:05.915Z,23.05
2022-11-09T06:07:38.940Z,25.37
2022-11-09T06:10:12.061Z,23.10
2022-11-09T06:12:45.511Z,20.62
2022-11-09T06:15:19.268Z,22.40
2022-11-09T06:17:57.304Z,23.07
2022-11-09T06:20:31.270Z,22.75
2022-11-09T06:23:05.084Z,25.65
2022-11-09T06:25:37.998Z,23.35
2022-11-09T06:28:11.136Z,23.55
2022-11-09T06:30:44.988Z,21.35
2022-11-09T06:33:18.290Z,21.97
2022-11-09T06:35:56.199Z,23.55
2022-11-09T06:38:28.285Z,24.70
2022-11-09T06:41:03.065Z,22.50
2022-11-09T06:43:35.864Z,23.85
2022-11-09T06:46:10.745Z,23.25
2022-11-09T06:48:43.961Z,21.42
2022-11-09T06:51:17.256Z,23.00
2022-11-09T06:53:49.945Z,24.25
2022-11-09T06:56:23.182Z,24.95
2022-11-09T06:58:56.007Z,24.72
2022-11-09T07:01:30.855Z,22.13
2022-11-09T07:04:03.808Z,22.07
2022-11-09T07:06:38.245Z,20.62
2022-11-09T07:09:12.213Z,20.32
2022-11-09T07:11:45.706Z,22.55
2022-11-09T07:14:18.865Z,23.00
2022-11-09T07:16:51.566Z,30.70
2022-11-09T07:19:25.015Z,22.85
2022-11-09T07:21:59.357Z,22.50
2022-11-09T07:24:33.940Z,24.02
2022-11-09T07:27:06.999Z,24.12
2022-11-09T07:29:40.518Z,26.37
2022-11-09T07:32:13.403Z,24.27
2022-11-09T07:34:47.895Z,24.65
2022-11-09T07:37:20.883Z,23.75
2022-11-09T07:39:55.353Z,24.10
2022-11-09T07:42:28.362Z,24.32
2022-11-09T07:45:01.326Z,26.07
2022-11-09T07:47:34.601Z,25.77
2022-11-09T07:50:08.498Z,24.63
2022-11-09T07:52:41.678Z,23.95
2022-11-09T07:55:15.134Z,26.20
2022-11-09T07:57:48.188Z,24.25
2022-11-09T08:00:23.821Z,25.85
2022-11-09T08:02:56.316Z,26.25
2022-11-09T08:05:30.288Z,26.48
2022-11-09T08:08:06.698Z,27.07
2022-11-09T08:10:41.543Z,26.10
2022-11-09T08:13:16.234Z,24.07
2022-11-09T08:15:50.429Z,24.35
2022-11-09T08:18:24.904Z,23.63
2022-11-09T08:20:58.020Z,25.48
2022-11-09T08:23:31.064Z,27.15
2022-11-09T08:26:08.580Z,26.15
2022-11-09T08:28:41.712Z,26.17
2022-11-09T08:31:14.904Z,26.37
2022-11-09T08:33:47.784Z,23.60
2022-11-09T08:36:21.406Z,26.45
2022-11-09T08:38:54.088Z,25.30
2022-11-09T08:41:27.199Z,24.47
2022-11-09T08:44:00.447Z,23.15
2022-11-09T08:46:38.379Z,21.60
2022-11-09T08:51:39.984Z,21.68
2022-11-09T08:54:14.392Z,22.37
2022-11-09T08:56:47.870Z,22.10
2022-11-09T08:59:20.853Z,21.68
2022-11-09T09:01:54.112Z,21.62
2022-11-09T09:04:27.265Z,19.75
2022-11-09T09:07:00.535Z,18.73
2022-11-09T09:09:34.962Z,20.60
2022-11-09T09:12:10.223Z,19.82
2022-11-09T09:14:43.157Z,19.17
2022-11-09T09:17:16.631Z,18.98
2022-11-09T09:19:50.222Z,19.30
2022-11-09T09:22:23.896Z,19.27
2022-11-09T09:24:56.904Z,18.40
2022-11-09T09:27:33.067Z,18.70
2022-11-09T09:30:07.399Z,19.40
2022-11-09T09:32:41.850Z,18.95
2022-11-09T09:35:14.675Z,19.48
2022-11-09T09:37:47.824Z,18.80
2022-11-09T09:40:33.894Z,18.10
2022-11-09T09:43:07.557Z,18.07
2022-11-09T09:45:42.360Z,15.95
2022-11-09T09:48:31.864Z,17.52
2022-11-09T09:51:22.916Z,16.52
2022-11-09T09:54:07.159Z,17.77
2022-11-09T09:56:43.675Z,18.48
2022-11-09T09:59:40.090Z,17.17
2022-11-09T10:02:29.140Z,18.52
2022-11-09T10:05:12.181Z,16.37
2022-11-09T10:08:01.817Z,18.77
2022-11-09T10:11:15.308Z,21.55
2022-11-09T10:14:07.205Z,16.17
2022-11-09T10:16:51.266Z,19.73
2022-11-09T10:20:00.964Z,18.92
2022-11-09T10:22:55.450Z,18.65
2022-11-09T10:25:57.915Z,17.87
2022-11-09T10:28:13.212Z,18.65
2022-11-09T10:30:47.048Z,19.52
2022-11-09T10:33:21.921Z,17.77
2022-11-09T10:36:08.370Z,18.02
2022-11-09T10:38:46.417Z,17.23
2022-11-09T10:41:42.617Z,18.17
2022-11-09T10:44:33.853Z,18.23
2022-11-09T10:47:26.654Z,21.57
2022-11-09T10:50:34.251Z,18.95
2022-11-09T10:53:28.502Z,19.07
2022-11-09T10:56:22.240Z,23.02
2022-11-09T10:59:55.455Z,18.40
2022-11-09T11:02:48.792Z,18.07
2022-11-09T11:05:41.433Z,17.50
2022-11-09T11:08:36.980Z,16.80
2022-11-09T11:11:37.187Z,22.02
2022-11-09T11:14:34.667Z,17.62
2022-11-09T11:17:31.141Z,17.52
2022-11-09T11:20:32.866Z,17.45
2022-11-09T11:23:28.174Z,17.57
2022-11-09T11:26:50.370Z,20.92
2022-11-09T11:29:49.005Z,22.67
2022-11-09T11:32:44.248Z,18.55
2022-11-09T11:35:59.185Z,21.52
2022-11-09T11:39:13.300Z,16.70
2022-11-09T11:42:14.668Z,21.60
2022-11-09T11:45:40.495Z,20.37
2022-11-09T11:48:44.762Z,20.88
2022-11-09T11:51:52.875Z,18.85
2022-11-09T11:55:19.024Z,17.90
2022-11-09T11:58:39.456Z,17.17
2022-11-09T12:01:46.756Z,19.17
2022-11-09T12:04:54.587Z,17.12
2022-11-09T12:08:21.662Z,19.32
2022-11-09T12:11:49.451Z,16.35
2022-11-09T12:15:02.200Z,16.05
2022-11-09T12:18:06.421Z,16.17
2022-11-09T12:21:17.061Z,15.95
2022-11-09T12:24:34.298Z,17.15
2022-11-09T12:28:03.022Z,15.93
2022-11-09T12:31:35.683Z,18.07
2022-11-09T12:34:42.552Z,18.05
2022-11-09T12:37:44.643Z,17.10
2022-11-09T12:40:40.100Z,17.50
2022-11-09T12:44:07.490Z,19.40
2022-11-09T12:47:09.328Z,18.77
2022-11-09T12:50:00.410Z,21.70
2022-11-09T12:52:52.936Z,21.52
2022-11-09T12:56:00.188Z,20.43
2022-11-09T12:58:51.483Z,23.20
2022-11-09T13:01:46.045Z,24.15
2022-11-09T13:04:37.896Z,22.90
2022-11-09T13:07:49.977Z,23.95
2022-11-09T13:10:41.377Z,24.18
2022-11-09T13:13:32.283Z,27.13
2022-11-09T13:16:36.459Z,43.68
2022-11-09T13:19:45.501Z,51.50
2022-11-09T13:22:44.441Z,54.67
2022-11-09T13:25:51.863Z,48.30
2022-11-09T13:28:43.876Z,31.62
2022-11-09T13:32:07.415Z,30.30
2022-11-09T13:35:00.594Z,31.27
2022-11-09T13:37:56.687Z,32.58
2022-11-09T13:40:50.792Z,30.43
2022-11-09T13:43:42.849Z,31.77
2022-11-09T13:46:38.859Z,31.20
2022-11-09T13:49:39.781Z,32.93
2022-11-09T13:52:55.164Z,33.25
2022-11-09T13:58:40.145Z,29.95
2022-11-09T14:01:38.719Z,33.70
2022-11-09T14:04:36.649Z,38.48
2022-11-09T14:07:35.753Z,33.53
2022-11-09T14:11:02.338Z,32.70
2022-11-09T14:14:13.099Z,30.32
2022-11-09T14:17:23.871Z,30.37
2022-11-09T14:20:36.871Z,28.75
2022-11-09T14:23:33.462Z,31.00
2022-11-09T14:26:26.622Z,30.10
2022-11-09T14:29:25.652Z,31.95
2022-11-09T14:32:38.137Z,34.98
2022-11-09T14:35:36.539Z,33.73
2022-11-09T14:38:34.962Z,32.20
2022-11-09T14:41:28.014Z,35.28
2022-11-09T14:44:36.102Z,33.55
2022-11-09T14:47:35.909Z,34.25
2022-11-09T14:50:30.662Z,35.08
2022-11-09T14:53:28.884Z,28.80
2022-11-09T14:56:21.720Z,33.90
2022-11-09T14:59:20.225Z,38.92
2022-11-09T15:02:19.474Z,42.67
2022-11-09T15:05:30.534Z,50.48
2022-11-09T15:08:23.928Z,43.58
2022-11-09T15:11:15.632Z,46.45
2022-11-09T15:14:32.030Z,47.03
2022-11-09T15:17:31.656Z,54.67
2022-11-09T15:20:30.523Z,50.48
2022-11-09T15:23:40.469Z,55.48
2022-11-09T15:26:45.325Z,57.62
2022-11-09T15:29:44.978Z,69.35
2022-11-09T15:32:40.584Z,62.53
2022-11-09T15:35:32.106Z,57.33
2022-11-09T15:38:41.711Z,62.03
2022-11-09T15:41:32.976Z,63.85
2022-11-09T15:44:23.875Z,75.22
2022-11-09T15:47:39.032Z,65.52
2022-11-09T15:50:30.088Z,87.53
2022-11-09T15:53:21.338Z,119.67
2022-11-09T15:56:23.084Z,114.50
2022-11-09T15:59:26.348Z,100.67
2022-11-09T16:02:19.291Z,103.55
2022-11-09T16:05:10.641Z,99.52
2022-11-09T16:08:03.315Z,95.20
2022-11-09T16:10:55.189Z,86.00
2022-11-09T16:13:46.657Z,75.37
2022-11-09T16:16:37.501Z,88.17
2022-11-09T16:19:28.300Z,94.70
2022-11-09T16:22:19.224Z,87.55
2022-11-09T16:25:10.854Z,82.92
2022-11-09T16:28:01.696Z,85.45
2022-11-09T16:30:53.114Z,83.47
2022-11-09T16:33:44.570Z,99.67
2022-11-09T16:36:40.600Z,101.07
2022-11-09T16:39:30.286Z,118.28
2022-11-09T16:42:22.290Z,112.52
2022-11-09T16:45:15.730Z,99.67
2022-11-09T16:48:10.011Z,99.40
2022-11-09T16:53:51.310Z,93.58
2022-11-09T16:56:42.615Z,91.40
2022-11-09T16:59:34.442Z,86.02
2022-11-09T17:02:27.553Z,69.77
2022-11-09T17:05:18.511Z,65.17
2022-11-09T17:08:10.664Z,66.60
2022-11-09T17:11:02.576Z,88.10
2022-11-09T17:13:59.939Z,92.72
2022-11-09T17:16:51.508Z,85.62
2022-11-09T17:19:42.665Z,67.45
2022-11-09T17:22:34.154Z,50.12
2022-11-09T17:25:25.413Z,46.65
2022-11-09T17:28:16.815Z,45.95
2022-11-09T17:31:17.684Z,43.15
2022-11-09T17:34:08.871Z,50.28
2022-11-09T17:37:05.083Z,56.65
2022-11-09T17:39:53.038Z,70.85
2022-11-09T17:42:45.507Z,48.35
2022-11-09T17:45:37.857Z,41.95
2022-11-09T17:48:29.216Z,36.03
2022-11-09T17:51:21.851Z,36.13
2022-11-09T17:54:12.691Z,36.93
2022-11-09T17:57:03.770Z,37.38
2022-11-09T17:59:54.530Z,39.25
2022-11-09T18:02:45.798Z,58.87
2022-11-09T18:05:45.638Z,47.55
2022-11-09T18:08:36.726Z,36.53
2022-11-09T18:11:28.848Z,34.30
2022-11-09T18:14:20.827Z,32.67
2022-11-09T18:17:12.031Z,34.43
2022-11-09T18:20:03.097Z,35.55
2022-11-09T18:22:55.101Z,35.85
2022-11-09T18:25:48.190Z,35.20
2022-11-09T18:28:39.912Z,40.03
2022-11-09T18:31:31.160Z,36.53
2022-11-09T18:34:23.135Z,32.45
2022-11-09T18:37:14.252Z,36.68
2022-11-09T18:40:06.689Z,36.85
2022-11-09T18:42:58.033Z,36.28
2022-11-09T18:45:56.133Z,35.50
2022-11-09T18:48:54.172Z,34.95
2022-11-09T18:51:45.901Z,32.95
2022-11-09T18:54:37.085Z,31.68
2022-11-09T18:57:27.764Z,33.02
2022-11-09T19:00:20.413Z,34.33
2022-11-09T19:03:17.220Z,39.63
2022-11-09T19:06:11.686Z,45.25
2022-11-09T19:09:20.649Z,47.73
2022-11-09T19:12:12.712Z,43.35
2022-11-09T19:15:05.441Z,40.25
2022-11-09T19:17:56.920Z,38.78
2022-11-09T19:20:49.127Z,39.23
2022-11-09T19:23:41.915Z,43.20
2022-11-09T19:26:34.842Z,44.18
2022-11-09T19:29:25.736Z,41.88
2022-11-09T19:32:16.483Z,56.95
2022-11-09T19:35:08.331Z,59.38
2022-11-09T19:38:03.670Z,55.67
2022-11-09T19:40:55.248Z,47.85
2022-11-09T19:43:48.062Z,45.05
2022-11-09T19:46:39.092Z,58.87
2022-11-09T19:49:29.994Z,51.20
2022-11-09T19:52:21.304Z,47.83
2022-11-09T19:55:12.964Z,48.13
2022-11-09T19:58:03.639Z,44.90
2022-11-09T20:01:06.332Z,54.10
2022-11-09T20:04:00.034Z,47.88
2022-11-09T20:06:51.607Z,47.25
2022-11-09T20:09:42.409Z,44.90
2022-11-09T20:12:52.461Z,40.40
2022-11-09T20:15:44.267Z,40.45
2022-11-09T20:18:37.612Z,40.25
2022-11-09T20:21:28.577Z,39.63
2022-11-09T20:24:19.722Z,41.40
2022-11-09T20:27:10.731Z,51.25
2022-11-09T20:30:01.462Z,51.28
2022-11-09T20:32:52.235Z,45.90
2022-11-09T20:35:46.832Z,46.77
2022-11-09T20:38:37.205Z,45.85
2022-11-09T20:41:28.421Z,44.45
2022-11-09T20:44:19.899Z,41.68
2022-11-09T20:47:10.842Z,42.13
2022-11-09T20:50:01.834Z,45.38
2022-11-09T20:52:52.615Z,45.35
2022-11-09T20:55:44.379Z,39.45
2022-11-09T20:58:35.482Z,41.40
2022-11-09T21:01:28.270Z,52.65
2022-11-09T21:04:19.619Z,54.85
2022-11-09T21:07:10.570Z,55.65
2022-11-09T21:10:01.594Z,54.25
2022-11-09T21:12:56.531Z,56.63
2022-11-09T21:15:47.711Z,45.83
2022-11-09T21:18:38.729Z,44.80
2022-11-09T21:21:35.259Z,45.35
2022-11-09T21:24:42.974Z,44.25
2022-11-09T21:27:52.065Z,41.85
2022-11-09T21:30:43.715Z,43.65
2022-11-09T21:33:35.418Z,46.55
2022-11-09T21:36:26.668Z,42.70
2022-11-09T21:39:17.511Z,40.05
2022-11-09T21:42:08.765Z,41.77
2022-11-09T21:45:00.187Z,40.05
2022-11-09T21:47:51.242Z,41.48
2022-11-09T21:50:42.399Z,41.23
2022-11-09T21:53:34.993Z,41.25
2022-11-09T21:56:26.133Z,42.67
2022-11-09T21:59:17.481Z,43.98
2022-11-09T22:02:11.163Z,57.33
2022-11-09T22:05:02.145Z,59.35
2022-11-09T22:07:54.595Z,55.43
2022-11-09T22:10:45.821Z,50.65
2022-11-09T22:13:56.213Z,40.80
2022-11-09T22:16:47.091Z,63.58
2022-11-09T22:19:58.391Z,63.20
2022-11-09T22:22:49.093Z,56.00
2022-11-09T22:25:45.230Z,44.15
2022-11-09T22:28:34.525Z,39.00
2022-11-09T22:31:25.774Z,39.95
2022-11-09T22:34:16.791Z,39.90
2022-11-09T22:37:07.871Z,36.30
2022-11-09T22:39:59.058Z,38.58
2022-11-09T22:42:49.722Z,37.35
2022-11-09T22:45:40.831Z,38.98
2022-11-09T22:48:34.131Z,37.48
2022-11-09T22:51:25.330Z,35.85
2022-11-09T22:54:16.264Z,38.42
2022-11-09T22:57:07.165Z,41.10
2022-11-09T22:59:58.199Z,39.42
2022-11-09T23:02:49.707Z,37.85
2022-11-09T23:05:42.120Z,36.70
2022-11-09T23:08:37.977Z,33.18
2022-11-09T23:11:29.414Z,38.13
2022-11-09T23:14:22.017Z,36.50
2022-11-09T23:17:15.805Z,36.00
2022-11-09T23:20:08.707Z,37.85
2022-11-09T23:23:00.750Z,34.58
2022-11-09T23:25:57.629Z,34.13
2022-11-09T23:28:49.633Z,34.67
2022-11-09T23:31:41.413Z,33.80
2022-11-09T23:34:32.141Z,37.05
2022-11-09T23:37:22.966Z,33.35
2022-11-09T23:40:14.974Z,37.88
2022-11-09T23:43:13.514Z,38.25
2022-11-09T23:46:08.010Z,35.48
2022-11-09T23:48:58.872Z,35.52
2022-11-09T23:51:49.544Z,39.38
2022-11-09T23:54:40.238Z,40.78
2022-11-09T23:57:31.243Z,38.23
